sensor_id;sensor_type;location;lat;lon;timestamp;pressure;altitude;pressure_sealevel;temperature;humidity
13456;BME280;6800;50.940;6.940;2023-03-21T00:01:15;100995.81;;;21.67;32.89
13456;BME280;6800;50.940;6.940;2023-03-21T00:05:16;100992.38;;;21.39;33.67
13456;BME280;6800;50.940;6.940;2023-03-21T00:09:18;100985.59;;;21.45;33.37
13456;BME280;6800;50.940;6.940;2023-03-21T00:13:20;100988.13;;;21.19;33.90
13456;BME280;6800;50.940;6.940;2023-03-21T00:17:23;100978.28;;;21.29;33.80
13456;BME280;6800;50.940;6.940;2023-03-21T00:21:24;100983.38;;;21.23;33.86
13456;BME280;6800;50.940;6.940;2023-03-21T00:25:48;100974.09;;;21.54;33.46
13456;BME280;6800;50.940;6.940;2023-03-21T00:29:50;100979.19;;;21.38;33.84
13456;BME280;6800;50.940;6.940;2023-03-21T00:33:52;100962.53;;;21.45;33.39
13456;BME280;6800;50.940;6.940;2023-03-21T00:37:57;100951.25;;;21.61;33.49
13456;BME280;6800;50.940;6.940;2023-03-21T00:41:59;100958.19;;;21.27;33.82
13456;BME280;6800;50.940;6.940;2023-03-21T00:46:01;100961.56;;;21.19;34.18
13456;BME280;6800;50.940;6.940;2023-03-21T00:50:03;100957.16;;;21.37;33.87
13456;BME280;6800;50.940;6.940;2023-03-21T00:54:05;100952.16;;;21.52;33.80
13456;BME280;6800;50.940;6.940;2023-03-21T00:58:07;100942.63;;;21.32;34.06
13456;BME280;6800;50.940;6.940;2023-03-21T01:02:09;100937.59;;;21.11;34.60
13456;BME280;6800;50.940;6.940;2023-03-21T01:06:14;100937.50;;;21.21;34.35
13456;BME280;6800;50.940;6.940;2023-03-21T01:10:19;100933.69;;;21.33;34.35
13456;BME280;6800;50.940;6.940;2023-03-21T01:14:22;100934.03;;;21.20;34.73
13456;BME280;6800;50.940;6.940;2023-03-21T01:18:26;100929.66;;;21.29;34.63
13456;BME280;6800;50.940;6.940;2023-03-21T01:22:28;100928.03;;;21.18;34.60
13456;BME280;6800;50.940;6.940;2023-03-21T01:26:29;100925.94;;;21.39;34.30
13456;BME280;6800;50.940;6.940;2023-03-21T01:30:31;100931.94;;;21.59;34.22
13456;BME280;6800;50.940;6.940;2023-03-21T01:34:41;100927.78;;;21.56;34.28
13456;BME280;6800;50.940;6.940;2023-03-21T01:38:43;100910.78;;;21.49;34.33
13456;BME280;6800;50.940;6.940;2023-03-21T01:42:44;100914.78;;;21.36;34.57
13456;BME280;6800;50.940;6.940;2023-03-21T01:46:48;100918.03;;;21.30;34.77
13456;BME280;6800;50.940;6.940;2023-03-21T01:51:11;100915.25;;;21.49;34.49
13456;BME280;6800;50.940;6.940;2023-03-21T01:55:14;100905.84;;;21.54;34.55
13456;BME280;6800;50.940;6.940;2023-03-21T01:59:24;100912.53;;;21.58;34.24
13456;BME280;6800;50.940;6.940;2023-03-21T02:03:29;100905.31;;;21.68;34.37
13456;BME280;6800;50.940;6.940;2023-03-21T02:07:39;100899.44;;;21.30;34.55
13456;BME280;6800;50.940;6.940;2023-03-21T02:11:42;100897.63;;;21.30;35.00
13456;BME280;6800;50.940;6.940;2023-03-21T02:16:01;100890.88;;;21.36;34.68
13456;BME280;6800;50.940;6.940;2023-03-21T02:20:26;100883.81;;;21.44;34.99
13456;BME280;6800;50.940;6.940;2023-03-21T02:29:11;100859.91;;;20.99;35.62
13456;BME280;6800;50.940;6.940;2023-03-21T02:33:40;100854.34;;;21.03;35.52
13456;BME280;6800;50.940;6.940;2023-03-21T02:42:08;100848.63;;;21.25;35.25
13456;BME280;6800;50.940;6.940;2023-03-21T02:46:20;100857.84;;;21.21;35.25
13456;BME280;6800;50.940;6.940;2023-03-21T02:50:35;100848.59;;;21.42;34.75
13456;BME280;6800;50.940;6.940;2023-03-21T02:54:42;100857.63;;;21.49;34.90
13456;BME280;6800;50.940;6.940;2023-03-21T02:58:49;100847.53;;;21.53;35.03
13456;BME280;6800;50.940;6.940;2023-03-21T03:02:51;100854.44;;;21.63;34.92
13456;BME280;6800;50.940;6.940;2023-03-21T03:07:15;100855.66;;;21.51;35.26
13456;BME280;6800;50.940;6.940;2023-03-21T03:11:32;100842.44;;;21.59;34.92
13456;BME280;6800;50.940;6.940;2023-03-21T03:15:43;100842.16;;;21.27;35.26
13456;BME280;6800;50.940;6.940;2023-03-21T03:24:19;100836.16;;;21.43;35.39
13456;BME280;6800;50.940;6.940;2023-03-21T03:28:26;100836.44;;;21.40;35.34
13456;BME280;6800;50.940;6.940;2023-03-21T03:32:40;100824.16;;;21.39;35.44
13456;BME280;6800;50.940;6.940;2023-03-21T03:36:46;100821.22;;;21.24;35.55
13456;BME280;6800;50.940;6.940;2023-03-21T03:40:57;100820.53;;;21.05;36.17
13456;BME280;6800;50.940;6.940;2023-03-21T03:45:04;100823.03;;;21.06;35.78
13456;BME280;6800;50.940;6.940;2023-03-21T03:49:16;100820.25;;;21.08;35.78
13456;BME280;6800;50.940;6.940;2023-03-21T03:53:24;100812.50;;;21.14;35.83
13456;BME280;6800;50.940;6.940;2023-03-21T03:57:28;100808.91;;;21.23;35.73
13456;BME280;6800;50.940;6.940;2023-03-21T04:01:30;100809.31;;;21.28;35.82
13456;BME280;6800;50.940;6.940;2023-03-21T04:05:32;100805.50;;;21.31;35.55
13456;BME280;6800;50.940;6.940;2023-03-21T04:09:33;100795.28;;;21.18;36.11
13456;BME280;6800;50.940;6.940;2023-03-21T04:13:45;100803.59;;;21.23;35.92
13456;BME280;6800;50.940;6.940;2023-03-21T04:17:46;100791.81;;;20.90;36.43
13456;BME280;6800;50.940;6.940;2023-03-21T04:21:48;100795.75;;;21.31;35.80
13456;BME280;6800;50.940;6.940;2023-03-21T04:25:49;100801.28;;;21.20;35.94
13456;BME280;6800;50.940;6.940;2023-03-21T04:29:57;100797.53;;;21.13;35.95
13456;BME280;6800;50.940;6.940;2023-03-21T04:34:00;100791.50;;;20.93;36.66
13456;BME280;6800;50.940;6.940;2023-03-21T04:38:02;100796.38;;;20.98;36.44
13456;BME280;6800;50.940;6.940;2023-03-21T04:42:04;100788.34;;;21.25;35.55
13456;BME280;6800;50.940;6.940;2023-03-21T04:46:05;100790.38;;;20.96;36.60
13456;BME280;6800;50.940;6.940;2023-03-21T04:50:09;100784.19;;;21.05;36.49
13456;BME280;6800;50.940;6.940;2023-03-21T04:54:11;100781.16;;;21.18;36.40
13456;BME280;6800;50.940;6.940;2023-03-21T04:58:13;100779.81;;;20.69;37.03
13456;BME280;6800;50.940;6.940;2023-03-21T05:02:15;100774.66;;;20.67;37.33
13456;BME280;6800;50.940;6.940;2023-03-21T05:06:16;100788.41;;;20.98;36.43
13456;BME280;6800;50.940;6.940;2023-03-21T05:10:18;100783.78;;;21.00;36.89
13456;BME280;6800;50.940;6.940;2023-03-21T05:14:22;100782.56;;;20.94;36.64
13456;BME280;6800;50.940;6.940;2023-03-21T05:18:24;100782.22;;;20.62;37.58
13456;BME280;6800;50.940;6.940;2023-03-21T05:22:26;100779.56;;;20.62;37.05
13456;BME280;6800;50.940;6.940;2023-03-21T05:26:29;100776.94;;;20.35;37.80
13456;BME280;6800;50.940;6.940;2023-03-21T05:30:30;100784.13;;;20.43;37.91
13456;BME280;6800;50.940;6.940;2023-03-21T05:34:32;100789.00;;;20.47;37.77
13456;BME280;6800;50.940;6.940;2023-03-21T05:38:33;100785.13;;;20.42;37.92
13456;BME280;6800;50.940;6.940;2023-03-21T05:42:35;100784.34;;;20.59;37.37
13456;BME280;6800;50.940;6.940;2023-03-21T05:46:36;100779.25;;;21.10;36.50
13456;BME280;6800;50.940;6.940;2023-03-21T05:50:38;100787.84;;;20.77;36.96
13456;BME280;6800;50.940;6.940;2023-03-21T05:54:39;100784.69;;;20.46;38.10
13456;BME280;6800;50.940;6.940;2023-03-21T05:58:40;100791.66;;;20.92;37.00
13456;BME280;6800;50.940;6.940;2023-03-21T06:02:43;100793.38;;;20.66;37.46
13456;BME280;6800;50.940;6.940;2023-03-21T06:06:44;100789.09;;;20.55;37.85
13456;BME280;6800;50.940;6.940;2023-03-21T06:10:46;100783.13;;;21.16;37.81
13456;BME280;6800;50.940;6.940;2023-03-21T06:14:47;100787.31;;;21.18;37.06
13456;BME280;6800;50.940;6.940;2023-03-21T06:18:48;100789.28;;;20.89;37.84
13456;BME280;6800;50.940;6.940;2023-03-21T06:22:50;100789.09;;;21.00;37.18
13456;BME280;6800;50.940;6.940;2023-03-21T06:26:51;100791.94;;;21.16;36.67
13456;BME280;6800;50.940;6.940;2023-03-21T06:30:53;100800.03;;;20.97;36.96
13456;BME280;6800;50.940;6.940;2023-03-21T06:34:54;100797.69;;;20.67;37.92
13456;BME280;6800;50.940;6.940;2023-03-21T06:38:56;100796.94;;;20.74;37.42
13456;BME280;6800;50.940;6.940;2023-03-21T06:42:57;100796.56;;;21.14;36.89
13456;BME280;6800;50.940;6.940;2023-03-21T06:46:59;100799.38;;;20.85;37.34
13456;BME280;6800;50.940;6.940;2023-03-21T06:51:00;100801.53;;;20.82;37.45
13456;BME280;6800;50.940;6.940;2023-03-21T06:55:03;100806.94;;;21.60;36.23
13456;BME280;6800;50.940;6.940;2023-03-21T06:59:04;100813.41;;;21.23;36.76
13456;BME280;6800;50.940;6.940;2023-03-21T07:03:06;100810.75;;;21.05;37.93
13456;BME280;6800;50.940;6.940;2023-03-21T07:07:07;100806.66;;;21.28;37.66
13456;BME280;6800;50.940;6.940;2023-03-21T07:11:09;100816.81;;;21.15;38.16
13456;BME280;6800;50.940;6.940;2023-03-21T07:15:10;100824.06;;;21.84;37.58
13456;BME280;6800;50.940;6.940;2023-03-21T07:19:12;100819.38;;;21.42;38.83
13456;BME280;6800;50.940;6.940;2023-03-21T07:23:13;100825.31;;;21.36;39.55
13456;BME280;6800;50.940;6.940;2023-03-21T07:27:16;100818.47;;;21.51;39.94
13456;BME280;6800;50.940;6.940;2023-03-21T07:31:18;100810.56;;;20.62;41.30
13456;BME280;6800;50.940;6.940;2023-03-21T07:35:19;100814.03;;;20.72;41.63
13456;BME280;6800;50.940;6.940;2023-03-21T07:39:21;100814.59;;;20.66;42.40
13456;BME280;6800;50.940;6.940;2023-03-21T07:43:23;100817.66;;;21.16;41.90
13456;BME280;6800;50.940;6.940;2023-03-21T07:47:25;100818.16;;;20.57;43.18
13456;BME280;6800;50.940;6.940;2023-03-21T07:51:26;100823.97;;;20.87;43.44
13456;BME280;6800;50.940;6.940;2023-03-21T07:55:30;100833.50;;;20.26;43.96
13456;BME280;6800;50.940;6.940;2023-03-21T07:59:35;100831.53;;;19.63;46.06
13456;BME280;6800;50.940;6.940;2023-03-21T08:03:36;100819.53;;;20.61;44.33
13456;BME280;6800;50.940;6.940;2023-03-21T08:07:38;100827.66;;;20.23;45.25
13456;BME280;6800;50.940;6.940;2023-03-21T08:11:39;100826.78;;;20.59;44.94
13456;BME280;6800;50.940;6.940;2023-03-21T08:15:41;100824.50;;;20.46;45.00
13456;BME280;6800;50.940;6.940;2023-03-21T08:19:42;100821.47;;;20.86;44.83
13456;BME280;6800;50.940;6.940;2023-03-21T08:23:44;100830.47;;;20.75;44.68
13456;BME280;6800;50.940;6.940;2023-03-21T08:27:46;100826.19;;;20.38;45.45
13456;BME280;6800;50.940;6.940;2023-03-21T08:31:48;100818.44;;;20.98;44.89
13456;BME280;6800;50.940;6.940;2023-03-21T08:35:49;100812.41;;;20.61;45.67
13456;BME280;6800;50.940;6.940;2023-03-21T08:39:51;100824.13;;;20.32;46.57
13456;BME280;6800;50.940;6.940;2023-03-21T08:43:53;100818.41;;;20.63;46.07
13456;BME280;6800;50.940;6.940;2023-03-21T08:47:54;100834.25;;;19.99;47.13
13456;BME280;6800;50.940;6.940;2023-03-21T08:51:57;100829.69;;;19.82;47.46
13456;BME280;6800;50.940;6.940;2023-03-21T08:55:58;100822.84;;;19.70;47.48
13456;BME280;6800;50.940;6.940;2023-03-21T09:00:00;100825.94;;;20.31;47.13
13456;BME280;6800;50.940;6.940;2023-03-21T09:04:01;100822.72;;;19.62;48.39
13456;BME280;6800;50.940;6.940;2023-03-21T09:08:03;100831.88;;;19.96;47.77
13456;BME280;6800;50.940;6.940;2023-03-21T09:12:05;100820.34;;;20.34;47.53
13456;BME280;6800;50.940;6.940;2023-03-21T09:16:07;100812.94;;;19.82;47.92
13456;BME280;6800;50.940;6.940;2023-03-21T09:20:10;100814.31;;;19.95;48.28
13456;BME280;6800;50.940;6.940;2023-03-21T09:24:18;100813.09;;;20.17;47.87
13456;BME280;6800;50.940;6.940;2023-03-21T09:28:20;100808.84;;;20.70;47.08
13456;BME280;6800;50.940;6.940;2023-03-21T09:32:22;100806.16;;;20.80;46.36
13456;BME280;6800;50.940;6.940;2023-03-21T09:36:25;100809.75;;;20.61;47.03
13456;BME280;6800;50.940;6.940;2023-03-21T09:40:44;100820.66;;;20.31;47.48
13456;BME280;6800;50.940;6.940;2023-03-21T09:44:55;100811.75;;;20.77;46.20
13456;BME280;6800;50.940;6.940;2023-03-21T09:49:05;100813.47;;;20.68;46.40
13456;BME280;6800;50.940;6.940;2023-03-21T09:57:37;100808.09;;;20.51;45.78
13456;BME280;6800;50.940;6.940;2023-03-21T10:01:43;100803.78;;;20.77;45.45
13456;BME280;6800;50.940;6.940;2023-03-21T10:05:46;100786.19;;;20.49;46.54
13456;BME280;6800;50.940;6.940;2023-03-21T10:09:50;100790.00;;;20.46;45.76
13456;BME280;6800;50.940;6.940;2023-03-21T10:14:04;100793.50;;;20.00;46.95
13456;BME280;6800;50.940;6.940;2023-03-21T10:18:12;100795.56;;;20.06;46.80
13456;BME280;6800;50.940;6.940;2023-03-21T10:22:16;100791.16;;;20.34;45.28
13456;BME280;6800;50.940;6.940;2023-03-21T10:26:18;100784.09;;;20.15;46.51
13456;BME280;6800;50.940;6.940;2023-03-21T10:30:30;100776.81;;;20.99;44.53
13456;BME280;6800;50.940;6.940;2023-03-21T10:34:37;100776.25;;;20.33;45.61
13456;BME280;6800;50.940;6.940;2023-03-21T10:42:45;100767.50;;;20.95;44.14
13456;BME280;6800;50.940;6.940;2023-03-21T10:46:55;100759.75;;;21.19;44.13
13456;BME280;6800;50.940;6.940;2023-03-21T10:50:57;100747.69;;;20.45;45.37
13456;BME280;6800;50.940;6.940;2023-03-21T10:55:17;100763.88;;;21.14;44.28
13456;BME280;6800;50.940;6.940;2023-03-21T10:59:22;100742.91;;;20.93;44.19
13456;BME280;6800;50.940;6.940;2023-03-21T11:03:27;100742.59;;;20.61;44.49
13456;BME280;6800;50.940;6.940;2023-03-21T11:07:31;100737.63;;;20.21;44.94
13456;BME280;6800;50.940;6.940;2023-03-21T11:11:48;100727.31;;;20.45;44.34
13456;BME280;6800;50.940;6.940;2023-03-21T11:15:54;100722.28;;;21.22;43.29
13456;BME280;6800;50.940;6.940;2023-03-21T11:19:58;100705.59;;;20.77;43.91
13456;BME280;6800;50.940;6.940;2023-03-21T11:24:01;100707.03;;;20.89;43.77
13456;BME280;6800;50.940;6.940;2023-03-21T11:28:24;100691.88;;;20.81;43.74
13456;BME280;6800;50.940;6.940;2023-03-21T11:32:33;100689.38;;;20.62;44.52
13456;BME280;6800;50.940;6.940;2023-03-21T11:36:36;100686.25;;;21.20;43.03
13456;BME280;6800;50.940;6.940;2023-03-21T11:40:51;100690.00;;;21.09;43.13
13456;BME280;6800;50.940;6.940;2023-03-21T11:45:00;100686.66;;;21.07;43.13
13456;BME280;6800;50.940;6.940;2023-03-21T11:49:02;100697.09;;;20.56;44.29
13456;BME280;6800;50.940;6.940;2023-03-21T11:57:37;100693.56;;;19.83;46.28
13456;BME280;6800;50.940;6.940;2023-03-21T12:01:59;100689.06;;;20.48;45.34
13456;BME280;6800;50.940;6.940;2023-03-21T12:06:11;100673.28;;;20.01;45.93
13456;BME280;6800;50.940;6.940;2023-03-21T12:10:42;100679.16;;;19.95;46.50
13456;BME280;6800;50.940;6.940;2023-03-21T12:14:57;100675.53;;;19.60;47.03
13456;BME280;6800;50.940;6.940;2023-03-21T12:28:03;100667.06;;;20.10;45.85
13456;BME280;6800;50.940;6.940;2023-03-21T12:32:34;100667.78;;;20.12;46.66
13456;BME280;6800;50.940;6.940;2023-03-21T12:45:10;100659.97;;;20.73;45.37
13456;BME280;6800;50.940;6.940;2023-03-21T12:49:25;100665.09;;;20.57;45.45
13456;BME280;6800;50.940;6.940;2023-03-21T12:53:54;100649.88;;;20.59;45.48
13456;BME280;6800;50.940;6.940;2023-03-21T12:58:01;100641.50;;;21.25;44.25
13456;BME280;6800;50.940;6.940;2023-03-21T13:02:17;100641.22;;;20.92;44.25
13456;BME280;6800;50.940;6.940;2023-03-21T13:06:23;100629.19;;;21.57;43.18
13456;BME280;6800;50.940;6.940;2023-03-21T13:14:34;100622.69;;;21.18;43.56
13456;BME280;6800;50.940;6.940;2023-03-21T13:23:08;100607.84;;;22.09;42.12
13456;BME280;6800;50.940;6.940;2023-03-21T13:27:27;100610.69;;;21.73;42.37
13456;BME280;6800;50.940;6.940;2023-03-21T13:31:28;100587.16;;;22.61;40.45
13456;BME280;6800;50.940;6.940;2023-03-21T13:35:44;100577.94;;;22.15;41.29
13456;BME280;6800;50.940;6.940;2023-03-21T13:39:46;100580.97;;;21.11;42.85
13456;BME280;6800;50.940;6.940;2023-03-21T13:48:05;100565.16;;;21.27;42.53
13456;BME280;6800;50.940;6.940;2023-03-21T13:52:27;100562.53;;;20.83;43.68
13456;BME280;6800;50.940;6.940;2023-03-21T13:56:32;100562.44;;;22.02;41.54
13456;BME280;6800;50.940;6.940;2023-03-21T14:05:19;100543.22;;;21.58;41.51
13456;BME280;6800;50.940;6.940;2023-03-21T14:09:34;100545.13;;;21.40;42.14
13456;BME280;6800;50.940;6.940;2023-03-21T14:13:37;100532.72;;;22.63;40.36
13456;BME280;6800;50.940;6.940;2023-03-21T14:17:55;100540.00;;;21.13;42.70
13456;BME280;6800;50.940;6.940;2023-03-21T14:21:57;100527.13;;;21.26;42.69
13456;BME280;6800;50.940;6.940;2023-03-21T14:25:59;100526.13;;;21.61;41.97
13456;BME280;6800;50.940;6.940;2023-03-21T14:30:01;100523.56;;;20.58;43.57
13456;BME280;6800;50.940;6.940;2023-03-21T14:34:05;100525.94;;;21.62;41.40
13456;BME280;6800;50.940;6.940;2023-03-21T14:38:18;100518.31;;;21.67;41.59
13456;BME280;6800;50.940;6.940;2023-03-21T14:42:24;100512.50;;;21.64;41.33
13456;BME280;6800;50.940;6.940;2023-03-21T14:46:26;100531.69;;;22.00;41.52
13456;BME280;6800;50.940;6.940;2023-03-21T14:50:45;100509.63;;;21.08;42.82
13456;BME280;6800;50.940;6.940;2023-03-21T14:54:48;100518.88;;;21.95;40.96
13456;BME280;6800;50.940;6.940;2023-03-21T14:58:51;100502.28;;;21.85;41.72
13456;BME280;6800;50.940;6.940;2023-03-21T15:02:56;100503.81;;;22.20;41.22
13456;BME280;6800;50.940;6.940;2023-03-21T15:07:01;100502.59;;;22.87;39.33
13456;BME280;6800;50.940;6.940;2023-03-21T15:11:10;100492.56;;;23.44;38.93
13456;BME280;6800;50.940;6.940;2023-03-21T15:15:13;100490.16;;;22.23;40.53
13456;BME280;6800;50.940;6.940;2023-03-21T15:19:18;100482.19;;;22.31;40.28
13456;BME280;6800;50.940;6.940;2023-03-21T15:23:29;100463.56;;;23.10;39.73
13456;BME280;6800;50.940;6.940;2023-03-21T15:27:36;100453.28;;;21.96;41.54
13456;BME280;6800;50.940;6.940;2023-03-21T15:31:39;100441.78;;;23.06;39.69
13456;BME280;6800;50.940;6.940;2023-03-21T15:35:50;100442.75;;;22.50;40.08
13456;BME280;6800;50.940;6.940;2023-03-21T15:40:08;100444.41;;;23.14;39.58
13456;BME280;6800;50.940;6.940;2023-03-21T15:44:13;100451.50;;;22.91;40.03
13456;BME280;6800;50.940;6.940;2023-03-21T15:48:15;100436.88;;;23.26;39.08
13456;BME280;6800;50.940;6.940;2023-03-21T15:52:17;100434.91;;;22.81;39.85
13456;BME280;6800;50.940;6.940;2023-03-21T15:56:20;100453.00;;;23.86;38.64
13456;BME280;6800;50.940;6.940;2023-03-21T16:00:30;100443.34;;;23.85;38.18
13456;BME280;6800;50.940;6.940;2023-03-21T16:04:53;100437.25;;;23.54;38.26
13456;BME280;6800;50.940;6.940;2023-03-21T16:13:04;100438.84;;;24.08;37.18
13456;BME280;6800;50.940;6.940;2023-03-21T16:17:33;100428.75;;;24.18;37.22
13456;BME280;6800;50.940;6.940;2023-03-21T16:21:38;100426.50;;;23.39;38.34
13456;BME280;6800;50.940;6.940;2023-03-21T16:25:42;100422.41;;;23.96;37.53
13456;BME280;6800;50.940;6.940;2023-03-21T16:29:44;100424.31;;;23.43;38.77
13456;BME280;6800;50.940;6.940;2023-03-21T16:33:46;100420.44;;;23.90;38.28
13456;BME280;6800;50.940;6.940;2023-03-21T16:37:48;100425.31;;;23.87;37.85
13456;BME280;6800;50.940;6.940;2023-03-21T16:41:50;100416.78;;;23.91;37.98
13456;BME280;6800;50.940;6.940;2023-03-21T16:45:52;100425.16;;;24.11;38.26
13456;BME280;6800;50.940;6.940;2023-03-21T16:49:53;100427.47;;;24.14;37.56
13456;BME280;6800;50.940;6.940;2023-03-21T16:53:56;100417.31;;;24.10;37.39
13456;BME280;6800;50.940;6.940;2023-03-21T16:57:58;100419.53;;;24.06;37.70
13456;BME280;6800;50.940;6.940;2023-03-21T17:02:00;100418.31;;;23.86;37.54
13456;BME280;6800;50.940;6.940;2023-03-21T17:06:02;100434.00;;;23.36;36.70
13456;BME280;6800;50.940;6.940;2023-03-21T17:10:05;100440.97;;;23.67;35.67
13456;BME280;6800;50.940;6.940;2023-03-21T17:14:13;100447.34;;;24.03;35.08
13456;BME280;6800;50.940;6.940;2023-03-21T17:18:17;100442.38;;;24.23;35.75
13456;BME280;6800;50.940;6.940;2023-03-21T17:22:19;100451.91;;;23.95;36.81
13456;BME280;6800;50.940;6.940;2023-03-21T17:26:26;100453.63;;;23.88;37.36
13456;BME280;6800;50.940;6.940;2023-03-21T17:30:33;100453.88;;;23.78;37.95
13456;BME280;6800;50.940;6.940;2023-03-21T17:34:35;100461.41;;;23.75;38.15
13456;BME280;6800;50.940;6.940;2023-03-21T17:38:36;100478.34;;;23.82;37.88
13456;BME280;6800;50.940;6.940;2023-03-21T17:42:38;100470.72;;;23.79;37.72
13456;BME280;6800;50.940;6.940;2023-03-21T17:46:42;100466.22;;;23.79;38.13
13456;BME280;6800;50.940;6.940;2023-03-21T17:50:44;100469.09;;;23.70;37.56
13456;BME280;6800;50.940;6.940;2023-03-21T17:54:45;100454.75;;;23.48;38.28
13456;BME280;6800;50.940;6.940;2023-03-21T17:58:47;100454.16;;;23.61;37.51
13456;BME280;6800;50.940;6.940;2023-03-21T18:02:50;100467.50;;;23.61;36.74
13456;BME280;6800;50.940;6.940;2023-03-21T18:06:51;100459.88;;;23.58;35.54
13456;BME280;6800;50.940;6.940;2023-03-21T18:10:54;100446.94;;;23.47;34.67
13456;BME280;6800;50.940;6.940;2023-03-21T18:14:55;100460.91;;;23.49;33.87
13456;BME280;6800;50.940;6.940;2023-03-21T18:18:57;100452.47;;;23.37;33.77
13456;BME280;6800;50.940;6.940;2023-03-21T18:22:58;100451.31;;;23.32;33.25
13456;BME280;6800;50.940;6.940;2023-03-21T18:27:00;100459.59;;;23.45;32.88
13456;BME280;6800;50.940;6.940;2023-03-21T18:31:01;100463.31;;;23.36;33.16
13456;BME280;6800;50.940;6.940;2023-03-21T18:35:17;100465.66;;;23.31;32.77
13456;BME280;6800;50.940;6.940;2023-03-21T18:39:20;100462.34;;;23.20;33.46
13456;BME280;6800;50.940;6.940;2023-03-21T18:43:21;100472.88;;;23.53;32.26
13456;BME280;6800;50.940;6.940;2023-03-21T18:47:43;100476.44;;;23.37;32.63
13456;BME280;6800;50.940;6.940;2023-03-21T18:51:45;100477.00;;;23.33;32.96
13456;BME280;6800;50.940;6.940;2023-03-21T18:55:48;100473.78;;;22.98;33.46
13456;BME280;6800;50.940;6.940;2023-03-21T18:59:52;100469.34;;;23.21;32.83
13456;BME280;6800;50.940;6.940;2023-03-21T19:03:54;100483.66;;;23.20;33.01
13456;BME280;6800;50.940;6.940;2023-03-21T19:08:20;100477.22;;;23.54;32.37
13456;BME280;6800;50.940;6.940;2023-03-21T19:12:21;100477.13;;;22.84;33.03
13456;BME280;6800;50.940;6.940;2023-03-21T19:16:23;100480.28;;;23.26;32.42
13456;BME280;6800;50.940;6.940;2023-03-21T19:20:30;100481.41;;;23.01;33.16
13456;BME280;6800;50.940;6.940;2023-03-21T19:24:31;100484.88;;;23.10;32.72
13456;BME280;6800;50.940;6.940;2023-03-21T19:28:33;100477.97;;;23.32;32.82
13456;BME280;6800;50.940;6.940;2023-03-21T19:32:34;100474.28;;;23.41;32.84
13456;BME280;6800;50.940;6.940;2023-03-21T19:36:36;100476.53;;;23.13;33.69
13456;BME280;6800;50.940;6.940;2023-03-21T19:40:38;100460.13;;;22.93;33.77
13456;BME280;6800;50.940;6.940;2023-03-21T19:44:41;100460.09;;;23.01;33.97
13456;BME280;6800;50.940;6.940;2023-03-21T19:48:43;100467.06;;;23.10;33.50
13456;BME280;6800;50.940;6.940;2023-03-21T19:52:45;100470.00;;;23.23;33.64
13456;BME280;6800;50.940;6.940;2023-03-21T19:56:46;100474.25;;;23.02;33.91
13456;BME280;6800;50.940;6.940;2023-03-21T20:00:48;100466.69;;;23.21;33.22
13456;BME280;6800;50.940;6.940;2023-03-21T20:04:50;100463.56;;;23.10;33.82
13456;BME280;6800;50.940;6.940;2023-03-21T20:08:52;100469.00;;;22.70;34.34
13456;BME280;6800;50.940;6.940;2023-03-21T20:13:14;100470.78;;;22.93;34.40
13456;BME280;6800;50.940;6.940;2023-03-21T20:17:18;100464.72;;;23.15;33.77
13456;BME280;6800;50.940;6.940;2023-03-21T20:21:20;100467.56;;;23.06;33.83
13456;BME280;6800;50.940;6.940;2023-03-21T20:25:26;100469.00;;;22.86;34.44
13456;BME280;6800;50.940;6.940;2023-03-21T20:29:27;100457.38;;;22.54;34.92
13456;BME280;6800;50.940;6.940;2023-03-21T20:33:49;100466.63;;;22.91;34.20
13456;BME280;6800;50.940;6.940;2023-03-21T20:37:52;100462.34;;;22.74;34.78
13456;BME280;6800;50.940;6.940;2023-03-21T20:41:53;100464.03;;;22.75;34.76
13456;BME280;6800;50.940;6.940;2023-03-21T20:50:00;100459.50;;;22.83;34.75
13456;BME280;6800;50.940;6.940;2023-03-21T20:54:03;100460.88;;;22.55;34.68
13456;BME280;6800;50.940;6.940;2023-03-21T20:58:04;100456.22;;;22.57;34.86
13456;BME280;6800;50.940;6.940;2023-03-21T21:02:26;100448.59;;;22.62;35.34
13456;BME280;6800;50.940;6.940;2023-03-21T21:06:27;100453.72;;;22.64;35.47
13456;BME280;6800;50.940;6.940;2023-03-21T21:10:29;100447.19;;;22.82;34.93
13456;BME280;6800;50.940;6.940;2023-03-21T21:14:34;100448.59;;;22.54;35.48
13456;BME280;6800;50.940;6.940;2023-03-21T21:18:36;100450.94;;;22.33;35.67
13456;BME280;6800;50.940;6.940;2023-03-21T21:22:38;100446.75;;;22.71;35.54
13456;BME280;6800;50.940;6.940;2023-03-21T21:26:41;100446.59;;;22.64;34.98
13456;BME280;6800;50.940;6.940;2023-03-21T21:30:46;100450.75;;;22.42;35.79
13456;BME280;6800;50.940;6.940;2023-03-21T21:34:47;100439.78;;;22.45;35.74
13456;BME280;6800;50.940;6.940;2023-03-21T21:38:49;100452.25;;;22.45;35.73
13456;BME280;6800;50.940;6.940;2023-03-21T21:42:50;100454.94;;;22.13;35.97
13456;BME280;6800;50.940;6.940;2023-03-21T21:46:52;100453.41;;;22.18;36.65
13456;BME280;6800;50.940;6.940;2023-03-21T21:50:53;100454.44;;;21.93;36.76
13456;BME280;6800;50.940;6.940;2023-03-21T21:54:55;100454.28;;;22.11;36.31
13456;BME280;6800;50.940;6.940;2023-03-21T21:58:57;100455.75;;;21.97;36.60
13456;BME280;6800;50.940;6.940;2023-03-21T22:03:02;100447.28;;;21.86;36.60
13456;BME280;6800;50.940;6.940;2023-03-21T22:07:03;100445.78;;;21.99;36.61
13456;BME280;6800;50.940;6.940;2023-03-21T22:11:06;100457.56;;;21.89;37.07
13456;BME280;6800;50.940;6.940;2023-03-21T22:15:08;100447.94;;;21.80;36.92
13456;BME280;6800;50.940;6.940;2023-03-21T22:19:10;100447.28;;;21.94;36.69
13456;BME280;6800;50.940;6.940;2023-03-21T22:23:12;100440.31;;;21.93;36.39
13456;BME280;6800;50.940;6.940;2023-03-21T22:27:13;100438.66;;;21.92;36.60
13456;BME280;6800;50.940;6.940;2023-03-21T22:31:15;100439.56;;;21.50;37.38
13456;BME280;6800;50.940;6.940;2023-03-21T22:35:17;100434.66;;;21.88;36.68
13456;BME280;6800;50.940;6.940;2023-03-21T22:39:19;100437.28;;;21.71;36.97
13456;BME280;6800;50.940;6.940;2023-03-21T22:43:26;100433.31;;;21.75;36.91
13456;BME280;6800;50.940;6.940;2023-03-21T22:47:28;100425.81;;;21.71;37.00